Time;durP1;ratioP1;P1;durP2;ratioP2;P2;SDS_P1;SDS_P2;PMS_P1;PMS_P2;Temp;Humidity;BMP_temperature;BMP_pressure;BME280_temperature;BME280_humidity;BME280_pressure;Samples;Min_cycle;Max_cycle;Signal;HPM_P1;HPM_P2
2021/06/03 00:02:00;;;;;;;3.93;3.07;;;;;;;;;;4993039;28;20277;-69
2021/06/03 00:04:26;;;;;;;5.73;3.00;;;;;;;;;;5009772;28;20205;-69
2021/06/03 00:06:52;;;;;;;4.37;2.87;;;;;;;;;;4991786;28;20218;-70
2021/06/03 00:09:19;;;;;;;7.23;3.67;;;;;;;;;;4989606;28;20178;-68
2021/06/03 00:11:45;;;;;;;3.23;2.93;;;;;;;;;;4992709;28;20190;-70
2021/06/03 00:14:12;;;;;;;5.60;3.13;;;;;;;;;;4992838;28;20179;-68
2021/06/03 00:16:38;;;;;;;3.73;3.40;;;;;;;;;;4993424;28;20214;-68
2021/06/03 00:19:05;;;;;;;4.30;3.30;;;;;;;;;;5010055;28;20178;-68
2021/06/03 00:21:32;;;;;;;5.00;3.50;;;;;;;;;;5011426;28;20202;-68
2021/06/03 00:23:58;;;;;;;3.87;3.23;;;;;;;;;;4993962;28;20198;-70
2021/06/03 00:26:24;;;;;;;5.33;3.90;;;;;;;;;;4992463;28;20661;-69
2021/06/03 00:28:50;;;;;;;5.60;4.07;;;;;;;;;;5009370;28;20187;-70
2021/06/03 00:31:16;;;;;;;6.13;3.70;;;;;;;;;;5010854;28;20183;-69
2021/06/03 00:33:43;;;;;;;3.83;3.53;;;;;;;;;;5008731;28;20192;-69
2021/06/03 00:36:10;;;;;;;4.47;3.50;;;;;;;;;;4992106;28;20550;-69
2021/06/03 00:38:36;;;;;;;3.87;3.57;;;;;;;;;;4990473;28;20555;-70
2021/06/03 00:41:04;;;;;;;3.93;3.47;;;;;;;;;;5008728;28;20187;-69
2021/06/03 00:43:31;;;;;;;4.23;3.83;;;;;;;;;;5008597;28;20198;-69
2021/06/03 00:45:57;;;;;;;4.43;3.67;;;;;;;;;;4991209;28;20673;-69
2021/06/03 00:48:23;;;;;;;4.17;3.60;;;;;;;;;;4990411;28;20302;-68
2021/06/03 00:50:50;;;;;;;7.57;3.90;;;;;;;;;;5012343;28;20178;-70
2021/06/03 00:53:21;;;;;;;5.77;3.53;;;;;;;;;;5014773;28;20186;-71
2021/06/03 00:55:54;;;;;;;4.60;4.20;;;;;;;;;;5011214;28;20304;-70
2021/06/03 00:58:20;;;;;;;3.93;3.60;;;;;;;;;;5009290;28;20201;-70
2021/06/03 01:00:48;;;;;;;4.87;4.43;;;;;;;;;;4989929;28;20213;-70
2021/06/03 01:03:14;;;;;;;4.03;3.73;;;;;;;;;;4990683;28;20216;-70
2021/06/03 01:05:46;;;;;;;4.93;3.87;;;;;;;;;;4989415;28;20179;-71
2021/06/03 01:08:20;;;;;;;4.20;3.90;;;;;;;;;;4989543;28;20175;-69
2021/06/03 01:10:49;;;;;;;4.57;3.77;;;;;;;;;;5006574;28;20185;-70
2021/06/03 01:13:34;;;;;;;3.80;3.50;;;;;;;;;;4989799;28;20289;-71
2021/06/03 01:16:05;;;;;;;5.00;4.23;;;;;;;;;;4984733;28;20213;-69
2021/06/03 01:18:32;;;;;;;5.30;4.07;;;;;;;;;;4989517;28;20249;-68
2021/06/03 01:20:59;;;;;;;4.17;3.77;;;;;;;;;;4990048;28;20185;-68
2021/06/03 01:23:25;;;;;;;5.33;4.13;;;;;;;;;;5007957;28;20179;-68
2021/06/03 01:25:51;;;;;;;4.20;3.80;;;;;;;;;;4990759;28;20667;-68
2021/06/03 01:28:18;;;;;;;7.13;4.53;;;;;;;;;;4990183;28;20532;-68
2021/06/03 01:30:47;;;;;;;5.30;4.10;;;;;;;;;;5007233;28;20631;-69
2021/06/03 01:33:14;;;;;;;8.97;3.80;;;;;;;;;;5007993;28;20173;-69
2021/06/03 01:35:42;;;;;;;4.77;3.80;;;;;;;;;;5004136;28;20196;-69
2021/06/03 01:38:10;;;;;;;4.23;3.83;;;;;;;;;;5007814;28;20793;-69
2021/06/03 01:40:38;;;;;;;4.20;3.80;;;;;;;;;;4990387;28;20176;-70
2021/06/03 01:43:08;;;;;;;4.83;4.10;;;;;;;;;;5007985;28;20234;-69
2021/06/03 01:45:34;;;;;;;4.03;3.60;;;;;;;;;;4988876;28;20210;-69
2021/06/03 01:48:00;;;;;;;5.23;4.10;;;;;;;;;;5007559;28;20573;-68
2021/06/03 01:50:27;;;;;;;5.00;3.47;;;;;;;;;;4990183;28;20177;-70
2021/06/03 01:52:53;;;;;;;5.23;4.57;;;;;;;;;;5006387;28;20591;-68
2021/06/03 01:55:19;;;;;;;4.73;4.33;;;;;;;;;;4988370;28;20283;-69
2021/06/03 01:57:46;;;;;;;3.80;3.40;;;;;;;;;;4989612;28;20294;-69
2021/06/03 02:00:13;;;;;;;3.57;3.27;;;;;;;;;;5006480;28;20599;-70
2021/06/03 02:02:39;;;;;;;3.93;3.53;;;;;;;;;;4989798;28;20200;-69
2021/06/03 02:05:06;;;;;;;3.70;3.40;;;;;;;;;;4989462;28;20188;-68
2021/06/03 02:07:32;;;;;;;3.40;3.07;;;;;;;;;;4989431;28;20293;-68
2021/06/03 02:09:58;;;;;;;6.40;3.93;;;;;;;;;;5006705;28;20195;-68
2021/06/03 02:12:25;;;;;;;6.60;3.97;;;;;;;;;;4990270;28;20184;-69
2021/06/03 02:14:53;;;;;;;4.87;3.80;;;;;;;;;;5007559;28;20197;-69
2021/06/03 02:17:29;;;;;;;4.03;3.63;;;;;;;;;;5007423;28;20181;-68
2021/06/03 02:20:10;;;;;;;4.27;3.83;;;;;;;;;;5006220;28;20196;-69
2021/06/03 02:22:36;;;;;;;4.07;3.50;;;;;;;;;;5003373;28;20265;-71
2021/06/03 02:25:03;;;;;;;4.27;3.87;;;;;;;;;;5007525;28;20249;-70
2021/06/03 02:27:30;;;;;;;3.60;3.30;;;;;;;;;;4990386;28;20481;-69
2021/06/03 02:29:56;;;;;;;3.83;3.47;;;;;;;;;;5009196;28;20905;-69
2021/06/03 02:32:22;;;;;;;4.50;4.10;;;;;;;;;;5006720;28;20274;-70
2021/06/03 02:34:49;;;;;;;5.07;3.80;;;;;;;;;;5008236;28;20196;-69
2021/06/03 02:37:16;;;;;;;5.20;3.30;;;;;;;;;;5007095;28;20204;-71
2021/06/03 02:39:45;;;;;;;3.70;3.40;;;;;;;;;;5007883;28;20183;-69
2021/06/03 02:42:12;;;;;;;4.80;4.30;;;;;;;;;;5008604;28;20197;-69
2021/06/03 02:44:38;;;;;;;4.73;4.30;;;;;;;;;;4989777;28;20715;-70
2021/06/03 02:47:05;;;;;;;4.77;4.33;;;;;;;;;;5006897;28;20210;-69
2021/06/03 02:49:32;;;;;;;5.23;4.03;;;;;;;;;;5008076;28;20182;-69
2021/06/03 02:52:01;;;;;;;3.67;3.37;;;;;;;;;;5008010;28;20194;-71
2021/06/03 02:54:27;;;;;;;6.40;4.00;;;;;;;;;;4990204;28;20225;-70
2021/06/03 02:56:53;;;;;;;3.80;3.50;;;;;;;;;;5008233;28;20235;-71
2021/06/03 02:59:20;;;;;;;3.77;3.47;;;;;;;;;;4990522;28;20178;-70
2021/06/03 03:01:46;;;;;;;4.13;3.50;;;;;;;;;;5007380;28;20518;-69
2021/06/03 03:04:12;;;;;;;4.10;3.77;;;;;;;;;;4994002;28;20672;-69
2021/06/03 03:06:38;;;;;;;3.80;3.50;;;;;;;;;;5012062;28;20210;-70
2021/06/03 03:09:05;;;;;;;10.20;3.73;;;;;;;;;;4994780;28;20197;-69
2021/06/03 03:11:31;;;;;;;3.80;3.50;;;;;;;;;;5012010;28;20514;-70
2021/06/03 03:13:57;;;;;;;4.70;3.30;;;;;;;;;;5011585;28;20202;-69
2021/06/03 03:16:23;;;;;;;5.43;3.20;;;;;;;;;;4993449;28;20214;-70
2021/06/03 03:18:49;;;;;;;4.57;3.90;;;;;;;;;;4994996;28;20652;-68
2021/06/03 03:21:16;;;;;;;4.03;3.63;;;;;;;;;;4993309;28;20599;-69
2021/06/03 03:23:42;;;;;;;6.20;3.47;;;;;;;;;;5011430;28;20184;-68
2021/06/03 03:26:08;;;;;;;3.87;3.47;;;;;;;;;;5011991;28;20217;-70
2021/06/03 03:28:34;;;;;;;5.27;3.77;;;;;;;;;;4994127;28;20203;-71
2021/06/03 03:31:00;;;;;;;4.70;3.60;;;;;;;;;;5010573;28;20177;-69
2021/06/03 03:33:26;;;;;;;3.60;3.30;;;;;;;;;;5010209;28;20540;-70
2021/06/03 03:35:53;;;;;;;4.13;3.63;;;;;;;;;;5011512;28;20226;-70
2021/06/03 03:38:20;;;;;;;3.50;3.20;;;;;;;;;;4993186;28;20935;-69
2021/06/03 03:40:46;;;;;;;5.13;3.27;;;;;;;;;;5011053;28;20190;-69
2021/06/03 03:43:12;;;;;;;5.40;4.03;;;;;;;;;;4993698;28;20218;-69
2021/06/03 03:45:38;;;;;;;3.60;3.30;;;;;;;;;;5010188;28;20178;-67
2021/06/03 03:48:05;;;;;;;5.23;3.60;;;;;;;;;;4993165;28;20197;-70
2021/06/03 03:50:32;;;;;;;4.67;3.50;;;;;;;;;;4993569;28;20179;-68
2021/06/03 03:52:58;;;;;;;3.90;3.50;;;;;;;;;;4992765;28;20175;-68
2021/06/03 03:55:24;;;;;;;3.63;3.10;;;;;;;;;;5010529;28;20704;-68
2021/06/03 03:57:50;;;;;;;3.30;3.00;;;;;;;;;;4991765;28;20214;-68
2021/06/03 04:00:18;;;;;;;3.87;3.07;;;;;;;;;;5010277;28;20202;-68
2021/06/03 04:02:44;;;;;;;3.23;2.80;;;;;;;;;;5009091;28;20599;-68
2021/06/03 04:05:10;;;;;;;3.60;3.30;;;;;;;;;;5010270;28;20192;-68
2021/06/03 04:07:38;;;;;;;3.47;3.17;;;;;;;;;;5009770;28;20203;-68
2021/06/03 04:10:05;;;;;;;4.80;3.10;;;;;;;;;;5010348;28;20195;-68
2021/06/03 04:12:31;;;;;;;3.50;3.20;;;;;;;;;;5008883;28;20663;-68
2021/06/03 04:14:57;;;;;;;5.40;3.60;;;;;;;;;;4992114;28;20190;-71
2021/06/03 04:17:23;;;;;;;3.60;3.30;;;;;;;;;;4992817;28;20187;-68
2021/06/03 04:19:49;;;;;;;3.27;2.80;;;;;;;;;;5006907;28;20186;-70
2021/06/03 04:22:15;;;;;;;3.70;2.93;;;;;;;;;;4989083;28;20653;-67
2021/06/03 04:24:41;;;;;;;3.20;2.90;;;;;;;;;;5007663;28;20187;-68
2021/06/03 04:27:08;;;;;;;5.20;2.90;;;;;;;;;;4992435;28;20211;-69
2021/06/03 04:29:34;;;;;;;2.93;2.63;;;;;;;;;;5008922;28;20648;-67
2021/06/03 04:32:00;;;;;;;4.47;3.10;;;;;;;;;;5007233;28;20529;-69
2021/06/03 04:34:26;;;;;;;4.47;2.80;;;;;;;;;;5009144;28;20179;-68
2021/06/03 04:36:52;;;;;;;3.27;2.97;;;;;;;;;;5008737;28;20188;-69
2021/06/03 04:39:18;;;;;;;5.47;3.60;;;;;;;;;;4991226;28;20320;-68
2021/06/03 04:41:44;;;;;;;3.30;3.00;;;;;;;;;;5008969;28;20265;-68
2021/06/03 04:44:10;;;;;;;3.83;3.50;;;;;;;;;;4990762;28;20179;-68
2021/06/03 04:46:36;;;;;;;4.13;2.97;;;;;;;;;;5007385;28;20198;-67
2021/06/03 04:49:02;;;;;;;3.10;2.80;;;;;;;;;;5007817;28;20177;-69
2021/06/03 04:51:28;;;;;;;3.30;3.00;;;;;;;;;;5007485;28;20179;-66
2021/06/03 04:53:54;;;;;;;3.20;2.60;;;;;;;;;;4990385;28;20213;-69
2021/06/03 04:56:20;;;;;;;3.20;2.90;;;;;;;;;;5004980;28;20700;-69
2021/06/03 04:58:46;;;;;;;3.03;2.70;;;;;;;;;;5007648;28;20278;-70
2021/06/03 05:01:13;;;;;;;3.50;3.20;;;;;;;;;;5008509;28;20459;-69
2021/06/03 05:03:39;;;;;;;4.53;2.80;;;;;;;;;;5009739;28;20184;-69
2021/06/03 05:06:06;;;;;;;3.73;2.80;;;;;;;;;;5007897;28;20212;-69
2021/06/03 05:08:32;;;;;;;4.33;2.90;;;;;;;;;;5010020;28;20598;-69
2021/06/03 05:10:58;;;;;;;3.73;2.57;;;;;;;;;;5010073;28;20252;-69
2021/06/03 05:13:24;;;;;;;3.10;2.80;;;;;;;;;;5005100;28;20546;-69
2021/06/03 05:15:50;;;;;;;2.90;2.70;;;;;;;;;;5007346;28;20197;-70
2021/06/03 05:18:16;;;;;;;3.97;2.90;;;;;;;;;;5009493;28;20739;-69
2021/06/03 05:20:43;;;;;;;4.40;3.23;;;;;;;;;;5009080;28;20225;-68
2021/06/03 05:23:09;;;;;;;2.90;2.70;;;;;;;;;;5009871;28;20189;-67
2021/06/03 05:25:35;;;;;;;3.57;3.13;;;;;;;;;;5007213;28;20571;-67
2021/06/03 05:28:02;;;;;;;3.87;2.77;;;;;;;;;;5008296;28;20770;-67
2021/06/03 05:30:29;;;;;;;3.80;2.80;;;;;;;;;;5004486;28;20434;-71
2021/06/03 05:32:55;;;;;;;3.00;2.80;;;;;;;;;;5007932;28;20186;-70
2021/06/03 05:35:22;;;;;;;2.97;2.67;;;;;;;;;;5005213;28;20182;-69
2021/06/03 05:37:48;;;;;;;3.40;2.67;;;;;;;;;;5007567;28;20193;-70
2021/06/03 05:40:15;;;;;;;3.10;2.80;;;;;;;;;;5006627;28;20449;-70
2021/06/03 05:42:42;;;;;;;4.00;2.77;;;;;;;;;;5008515;28;20209;-70
2021/06/03 05:45:08;;;;;;;3.63;2.90;;;;;;;;;;5004975;28;20191;-68
2021/06/03 05:47:36;;;;;;;4.00;2.53;;;;;;;;;;5006435;28;20297;-71
2021/06/03 05:50:02;;;;;;;3.13;2.87;;;;;;;;;;5005977;28;20197;-68
2021/06/03 05:52:28;;;;;;;3.70;2.80;;;;;;;;;;5007433;28;20270;-72
2021/06/03 05:54:54;;;;;;;3.30;3.00;;;;;;;;;;5001340;28;20214;-69
2021/06/03 05:57:20;;;;;;;3.43;3.00;;;;;;;;;;4988516;28;20214;-71
2021/06/03 05:59:46;;;;;;;2.80;2.60;;;;;;;;;;4988833;28;20184;-71
2021/06/03 06:02:19;;;;;;;3.33;3.07;;;;;;;;;;4970678;28;20211;-71
2021/06/03 06:07:30;;;;;;;3.80;3.10;;;;;;;;;;4978245;28;20217;-72
2021/06/03 06:09:56;;;;;;;3.13;2.83;;;;;;;;;;4988912;28;20224;-71
2021/06/03 06:12:22;;;;;;;2.77;2.57;;;;;;;;;;4970532;28;20194;-72
2021/06/03 06:14:48;;;;;;;3.27;2.93;;;;;;;;;;4988401;28;20194;-71
2021/06/03 06:17:14;;;;;;;3.73;2.90;;;;;;;;;;4983877;28;20184;-69
2021/06/03 06:19:41;;;;;;;3.77;3.33;;;;;;;;;;4971069;28;20199;-68
2021/06/03 06:22:07;;;;;;;3.23;2.93;;;;;;;;;;4970966;28;20183;-69
2021/06/03 06:24:33;;;;;;;4.27;2.90;;;;;;;;;;4987896;28;20606;-68
2021/06/03 06:27:01;;;;;;;4.17;3.27;;;;;;;;;;4969502;28;20214;-70
2021/06/03 06:29:27;;;;;;;3.37;3.07;;;;;;;;;;4974500;28;20178;-71
2021/06/03 06:31:53;;;;;;;3.63;3.33;;;;;;;;;;4987353;28;20236;-69
2021/06/03 06:34:19;;;;;;;4.80;2.70;;;;;;;;;;4987126;28;20493;-70
2021/06/03 06:36:45;;;;;;;3.60;3.23;;;;;;;;;;4978717;28;20229;-69
2021/06/03 06:39:11;;;;;;;3.87;3.23;;;;;;;;;;4980175;28;20184;-69
2021/06/03 06:41:41;;;;;;;5.13;4.03;;;;;;;;;;4996324;28;20451;-73
2021/06/03 06:44:07;;;;;;;3.83;2.90;;;;;;;;;;4987327;28;20182;-72
2021/06/03 06:46:34;;;;;;;3.73;3.33;;;;;;;;;;4999772;28;20248;-68
2021/06/03 06:49:00;;;;;;;9.17;3.50;;;;;;;;;;5000931;28;20186;-66
2021/06/03 06:51:26;;;;;;;5.30;3.40;;;;;;;;;;4994892;28;20269;-65
2021/06/03 06:53:52;;;;;;;3.60;3.23;;;;;;;;;;5006867;28;20185;-65
2021/06/03 06:56:18;;;;;;;4.30;3.90;;;;;;;;;;4975616;28;20230;-65
2021/06/03 06:58:44;;;;;;;4.30;3.90;;;;;;;;;;4992485;28;20195;-73
2021/06/03 07:01:10;;;;;;;3.97;3.60;;;;;;;;;;4967507;28;20721;-72
2021/06/03 07:03:36;;;;;;;5.30;3.87;;;;;;;;;;4976644;28;20210;-72
2021/06/03 07:06:02;;;;;;;5.87;4.27;;;;;;;;;;4974365;28;20212;-71
2021/06/03 07:08:28;;;;;;;4.03;3.63;;;;;;;;;;4991287;28;20648;-70
2021/06/03 07:10:55;;;;;;;4.90;3.67;;;;;;;;;;4974371;28;20175;-71
2021/06/03 07:13:21;;;;;;;5.30;3.47;;;;;;;;;;4978688;28;20182;-71
2021/06/03 07:15:47;;;;;;;4.70;3.63;;;;;;;;;;4988690;28;20641;-71
2021/06/03 07:18:14;;;;;;;3.93;3.63;;;;;;;;;;4989594;28;20241;-71
2021/06/03 07:20:40;;;;;;;4.27;3.67;;;;;;;;;;4991438;28;20212;-71
2021/06/03 07:23:06;;;;;;;3.77;3.43;;;;;;;;;;4974534;28;20179;-71
2021/06/03 07:25:34;;;;;;;3.70;3.40;;;;;;;;;;4973646;28;20179;-71
2021/06/03 07:28:00;;;;;;;5.50;4.00;;;;;;;;;;4972933;28;20207;-71
2021/06/03 07:30:27;;;;;;;4.10;3.40;;;;;;;;;;4991386;28;20268;-72
2021/06/03 07:32:54;;;;;;;3.70;3.40;;;;;;;;;;4992184;28;20181;-72
2021/06/03 07:35:21;;;;;;;5.30;3.53;;;;;;;;;;4992205;28;20184;-73
2021/06/03 07:37:47;;;;;;;4.30;3.90;;;;;;;;;;4989422;28;20252;-72
2021/06/03 07:40:16;;;;;;;4.03;3.73;;;;;;;;;;4993979;28;20209;-73
2021/06/03 07:42:42;;;;;;;4.57;3.90;;;;;;;;;;4990180;28;20209;-73
2021/06/03 07:45:09;;;;;;;4.40;3.83;;;;;;;;;;4992045;28;20590;-72
2021/06/03 07:47:36;;;;;;;7.13;4.03;;;;;;;;;;4992394;28;20205;-72
2021/06/03 07:50:04;;;;;;;4.90;4.50;;;;;;;;;;4992639;28;20327;-73
2021/06/03 07:52:30;;;;;;;4.37;3.90;;;;;;;;;;4992265;28;20179;-72
2021/06/03 07:54:56;;;;;;;4.50;4.10;;;;;;;;;;4994365;28;20222;-72
2021/06/03 07:57:22;;;;;;;4.07;3.70;;;;;;;;;;4976368;28;20208;-72
2021/06/03 07:59:48;;;;;;;4.90;3.90;;;;;;;;;;4994002;28;20194;-73
2021/06/03 08:02:14;;;;;;;4.27;3.90;;;;;;;;;;4991602;28;20183;-73
2021/06/03 08:04:40;;;;;;;5.37;3.97;;;;;;;;;;4991137;28;20234;-72
2021/06/03 08:07:06;;;;;;;4.30;3.90;;;;;;;;;;4969700;28;20211;-74
2021/06/03 08:09:32;;;;;;;4.73;4.33;;;;;;;;;;4998289;28;20176;-72
2021/06/03 08:11:59;;;;;;;3.97;3.67;;;;;;;;;;4975503;28;20187;-71
2021/06/03 08:14:25;;;;;;;5.33;4.83;;;;;;;;;;4992687;28;20206;-72
2021/06/03 08:16:51;;;;;;;4.97;4.50;;;;;;;;;;4992201;28;20649;-68
2021/06/03 08:19:19;;;;;;;5.53;5.03;;;;;;;;;;4997222;28;20228;-68
2021/06/03 08:21:46;;;;;;;6.50;5.30;;;;;;;;;;5002742;28;20206;-67
2021/06/03 08:24:12;;;;;;;5.03;4.63;;;;;;;;;;4995028;28;20190;-70
2021/06/03 08:26:38;;;;;;;5.93;4.97;;;;;;;;;;4970503;28;20208;-68
2021/06/03 08:29:04;;;;;;;5.53;4.73;;;;;;;;;;4962288;28;20425;-68
2021/06/03 08:31:30;;;;;;;5.03;4.63;;;;;;;;;;4987330;28;20178;-68
2021/06/03 08:34:02;;;;;;;6.00;4.63;;;;;;;;;;4979614;28;20193;-67
2021/06/03 08:36:28;;;;;;;6.77;4.90;;;;;;;;;;4972902;28;20279;-69
2021/06/03 08:38:55;;;;;;;5.40;4.90;;;;;;;;;;4983477;28;20227;-69
2021/06/03 08:41:21;;;;;;;5.80;4.87;;;;;;;;;;4964165;28;20698;-68
2021/06/03 08:43:48;;;;;;;9.17;5.67;;;;;;;;;;5001167;28;20235;-69
2021/06/03 08:46:14;;;;;;;5.10;4.67;;;;;;;;;;4988239;28;20197;-68
2021/06/03 08:48:41;;;;;;;5.73;4.80;;;;;;;;;;4984647;28;20271;-68
2021/06/03 08:51:07;;;;;;;7.07;4.83;;;;;;;;;;4956310;28;20177;-69
2021/06/03 08:53:34;;;;;;;6.50;4.47;;;;;;;;;;4990686;28;20185;-68
2021/06/03 08:56:20;;;;;;;5.23;4.77;;;;;;;;;;4991525;28;20312;-70
2021/06/03 08:58:50;;;;;;;8.43;5.50;;;;;;;;;;4983386;28;20181;-68
2021/06/03 09:01:17;;;;;;;5.70;5.20;;;;;;;;;;5004933;28;20204;-68
2021/06/03 09:03:43;;;;;;;5.67;4.27;;;;;;;;;;4998755;28;20499;-71
2021/06/03 09:06:13;;;;;;;5.37;4.47;;;;;;;;;;4973199;28;20499;-69
2021/06/03 09:08:40;;;;;;;5.10;3.97;;;;;;;;;;4967484;28;20177;-69
2021/06/03 09:11:08;;;;;;;7.00;4.90;;;;;;;;;;4985138;28;20256;-66
2021/06/03 09:13:41;;;;;;;4.90;4.03;;;;;;;;;;4984519;28;20572;-66
2021/06/03 09:16:10;;;;;;;5.07;4.27;;;;;;;;;;4964332;28;20617;-69
2021/06/03 09:18:37;;;;;;;7.60;5.30;;;;;;;;;;4959396;28;20266;-70
2021/06/03 09:21:14;;;;;;;5.90;5.00;;;;;;;;;;4962188;28;20180;-70
2021/06/03 09:23:42;;;;;;;6.10;5.10;;;;;;;;;;4979678;28;20177;-70
2021/06/03 09:26:09;;;;;;;6.73;5.37;;;;;;;;;;4985188;28;20640;-69
2021/06/03 09:28:37;;;;;;;5.77;5.27;;;;;;;;;;4973932;28;20186;-69
2021/06/03 09:31:03;;;;;;;5.37;4.93;;;;;;;;;;4989097;28;20191;-69
2021/06/03 09:33:41;;;;;;;6.10;5.43;;;;;;;;;;4977921;28;20217;-66
2021/06/03 09:36:09;;;;;;;5.83;4.80;;;;;;;;;;4960278;28;21966;-69
2021/06/03 09:38:35;;;;;;;8.73;5.30;;;;;;;;;;4972791;28;20182;-67
2021/06/03 09:41:01;;;;;;;6.63;6.00;;;;;;;;;;4953141;28;20187;-67
2021/06/03 09:43:27;;;;;;;5.77;5.30;;;;;;;;;;4976788;28;20202;-67
2021/06/03 09:45:56;;;;;;;6.00;5.50;;;;;;;;;;4978417;28;20636;-67
2021/06/03 09:48:35;;;;;;;5.97;5.47;;;;;;;;;;4980611;28;20199;-69
2021/06/03 09:51:20;;;;;;;6.30;5.50;;;;;;;;;;4949511;28;20199;-69
2021/06/03 09:53:49;;;;;;;6.13;5.53;;;;;;;;;;4969586;28;20661;-68
2021/06/03 09:56:36;;;;;;;7.10;6.20;;;;;;;;;;4974925;28;20717;-68
2021/06/03 09:59:02;;;;;;;6.17;5.57;;;;;;;;;;4967882;28;20218;-67
2021/06/03 10:01:48;;;;;;;7.00;6.27;;;;;;;;;;4978131;28;20325;-67
2021/06/03 10:04:19;;;;;;;6.77;6.27;;;;;;;;;;4985951;28;20182;-68
2021/06/03 10:06:55;;;;;;;7.33;6.00;;;;;;;;;;4974642;28;20265;-67
2021/06/03 10:09:41;;;;;;;6.13;5.53;;;;;;;;;;4985100;28;20183;-68
2021/06/03 10:12:08;;;;;;;6.73;6.10;;;;;;;;;;4986245;28;20184;-68
2021/06/03 10:14:35;;;;;;;7.17;6.10;;;;;;;;;;4994762;28;20506;-68
2021/06/03 10:17:15;;;;;;;6.83;6.23;;;;;;;;;;4970116;28;20237;-68
2021/06/03 10:19:41;;;;;;;7.00;6.30;;;;;;;;;;4984635;28;20186;-68
2021/06/03 10:22:22;;;;;;;7.63;6.27;;;;;;;;;;4968239;28;20355;-67
2021/06/03 10:24:49;;;;;;;6.13;5.53;;;;;;;;;;4990723;28;20190;-67
2021/06/03 10:27:15;;;;;;;6.50;5.87;;;;;;;;;;4992588;28;20614;-67
2021/06/03 10:29:42;;;;;;;6.80;6.10;;;;;;;;;;4987356;28;20420;-68
2021/06/03 10:32:08;;;;;;;6.10;5.60;;;;;;;;;;4988159;28;20175;-67
2021/06/03 10:34:35;;;;;;;5.10;4.60;;;;;;;;;;4987808;28;20645;-67
2021/06/03 10:37:01;;;;;;;5.97;4.77;;;;;;;;;;4987021;28;20183;-67
2021/06/03 10:39:29;;;;;;;4.63;3.80;;;;;;;;;;4987570;28;20183;-67
2021/06/03 10:41:55;;;;;;;4.33;3.67;;;;;;;;;;4966656;28;20211;-70
2021/06/03 10:44:22;;;;;;;3.90;3.60;;;;;;;;;;4989073;28;20271;-67
2021/06/03 10:46:48;;;;;;;7.80;4.17;;;;;;;;;;4988527;28;20203;-67
2021/06/03 10:49:16;;;;;;;5.37;3.63;;;;;;;;;;4989082;28;20195;-67
2021/06/03 10:51:42;;;;;;;5.63;4.10;;;;;;;;;;4967317;28;20359;-67
2021/06/03 10:54:09;;;;;;;4.10;3.77;;;;;;;;;;4983356;28;20183;-67
2021/06/03 10:56:35;;;;;;;4.83;4.33;;;;;;;;;;4970744;28;20558;-67
2021/06/03 10:59:03;;;;;;;6.20;5.40;;;;;;;;;;4987902;28;20187;-67
2021/06/03 11:01:31;;;;;;;6.50;5.90;;;;;;;;;;4987769;28;20183;-68
2021/06/03 11:04:09;;;;;;;7.63;4.97;;;;;;;;;;4988996;28;20187;-68
2021/06/03 11:06:45;;;;;;;6.50;5.90;;;;;;;;;;4977143;28;20215;-67
2021/06/03 11:09:11;;;;;;;5.53;5.03;;;;;;;;;;4981741;28;20179;-68
2021/06/03 11:11:40;;;;;;;8.17;4.77;;;;;;;;;;4976369;28;20179;-68
2021/06/03 11:14:14;;;;;;;5.20;3.70;;;;;;;;;;4983707;28;20179;-66
2021/06/03 11:16:40;;;;;;;6.00;3.90;;;;;;;;;;4979318;28;20187;-68
2021/06/03 11:19:07;;;;;;;3.37;3.07;;;;;;;;;;4983233;28;20185;-67
2021/06/03 11:21:37;;;;;;;5.27;3.37;;;;;;;;;;4978728;28;20630;-67
2021/06/03 11:24:21;;;;;;;4.47;3.70;;;;;;;;;;4985412;28;20579;-67
2021/06/03 11:26:49;;;;;;;9.10;3.67;;;;;;;;;;4954946;28;20204;-68
2021/06/03 11:29:16;;;;;;;3.93;3.53;;;;;;;;;;4988145;28;20634;-68
2021/06/03 11:31:47;;;;;;;4.37;3.97;;;;;;;;;;4997868;28;20534;-68
2021/06/03 11:34:21;;;;;;;4.53;3.40;;;;;;;;;;4989222;28;20180;-68
2021/06/03 11:36:57;;;;;;;4.53;3.85;;;;;;;;;;4985924;28;20428;-67
2021/06/03 11:39:32;;;;;;;5.07;3.60;;;;;;;;;;4992192;28;20191;-70
2021/06/03 11:42:16;;;;;;;4.13;3.83;;;;;;;;;;4974089;28;20202;-67
2021/06/03 11:45:07;;;;;;;4.40;3.87;;;;;;;;;;4973492;28;20188;-68
2021/06/03 11:47:36;;;;;;;4.17;3.60;;;;;;;;;;4994275;28;20291;-67
2021/06/03 11:50:02;;;;;;;3.40;3.10;;;;;;;;;;4985321;28;20182;-67
2021/06/03 11:52:28;;;;;;;3.67;3.33;;;;;;;;;;4992810;28;20195;-68
2021/06/03 11:54:56;;;;;;;3.90;3.60;;;;;;;;;;5005261;28;20276;-67
2021/06/03 11:57:23;;;;;;;4.47;3.10;;;;;;;;;;5011375;28;20182;-66
2021/06/03 11:59:57;;;;;;;3.07;2.87;;;;;;;;;;5016481;28;20178;-66
2021/06/03 12:02:39;;;;;;;4.40;3.43;;;;;;;;;;5009105;28;20191;-67
2021/06/03 12:05:12;;;;;;;3.50;3.10;;;;;;;;;;5010522;28;20190;-66
2021/06/03 12:07:45;;;;;;;3.13;2.83;;;;;;;;;;4999866;28;20276;-67
2021/06/03 12:10:12;;;;;;;3.87;3.57;;;;;;;;;;5009980;28;20212;-67
2021/06/03 12:12:38;;;;;;;3.90;3.35;;;;;;;;;;5005551;28;20473;-67
2021/06/03 12:15:18;;;;;;;3.10;2.80;;;;;;;;;;5012424;28;20183;-67
2021/06/03 12:17:45;;;;;;;4.03;3.63;;;;;;;;;;4992828;28;20517;-67
2021/06/03 12:20:13;;;;;;;3.83;3.30;;;;;;;;;;5011044;28;20186;-68
2021/06/03 14:52:55;;;;;;;4.57;4.03;;;;;;;;;;5103360;27;20515;-77
2021/06/03 14:55:22;;;;;;;4.33;3.90;;;;;;;;;;5119793;28;20178;-77
2021/06/03 14:57:48;;;;;;;3.90;3.50;;;;;;;;;;5099727;28;20174;-80
2021/06/03 15:00:18;;;;;;;4.57;3.90;;;;;;;;;;5094363;28;20205;-80
2021/06/03 15:02:44;;;;;;;5.73;4.13;;;;;;;;;;5102348;28;20611;-83
2021/06/03 15:05:11;;;;;;;7.47;4.57;;;;;;;;;;5086757;28;20179;-83
2021/06/03 15:07:37;;;;;;;3.97;3.43;;;;;;;;;;5102163;28;20183;-82
2021/06/03 15:10:04;;;;;;;4.80;4.37;;;;;;;;;;5088149;28;20175;-82
2021/06/03 15:12:30;;;;;;;5.30;4.90;;;;;;;;;;5105518;28;20202;-83
2021/06/03 15:14:56;;;;;;;4.53;4.10;;;;;;;;;;5103981;28;20681;-83
2021/06/03 15:17:22;;;;;;;7.33;6.70;;;;;;;;;;5102819;28;20186;-82
2021/06/03 15:19:51;;;;;;;5.87;5.37;;;;;;;;;;5102785;28;20177;-83
2021/06/03 15:22:18;;;;;;;6.80;6.10;;;;;;;;;;5102099;28;20182;-82
2021/06/03 15:24:44;;;;;;;5.57;5.07;;;;;;;;;;5089014;28;20278;-82
2021/06/03 15:27:10;;;;;;;5.13;4.70;;;;;;;;;;5106243;28;20590;-83
2021/06/03 15:29:37;;;;;;;4.77;4.37;;;;;;;;;;5106084;28;20301;-82
2021/06/03 15:32:04;;;;;;;5.10;4.70;;;;;;;;;;5103290;28;20213;-82
2021/06/03 15:34:30;;;;;;;4.67;4.20;;;;;;;;;;5103890;28;20177;-82
2021/06/03 15:36:56;;;;;;;40.33;25.10;;;;;;;;;;5092692;28;20644;-83
2021/06/03 15:39:22;;;;;;;86.37;56.90;;;;;;;;;;5085485;28;20286;-83
2021/06/03 15:41:49;;;;;;;53.37;32.20;;;;;;;;;;5104998;28;20203;-83
2021/06/03 15:44:15;;;;;;;41.93;31.87;;;;;;;;;;5081156;28;20193;-83
2021/06/03 15:46:41;;;;;;;27.43;22.60;;;;;;;;;;5087122;28;20198;-82
2021/06/03 15:49:08;;;;;;;24.00;18.63;;;;;;;;;;5084886;28;20198;-82
2021/06/03 15:51:35;;;;;;;18.17;16.37;;;;;;;;;;5086485;28;20263;-82
2021/06/03 15:54:02;;;;;;;9.07;7.30;;;;;;;;;;5086946;28;20186;-84
2021/06/03 15:56:29;;;;;;;10.50;8.83;;;;;;;;;;5087818;28;20525;-88
2021/06/03 15:58:56;;;;;;;5.63;5.13;;;;;;;;;;5105905;28;20224;-84
2021/06/03 16:01:22;;;;;;;8.10;6.47;;;;;;;;;;5104101;28;20783;-85
2021/06/03 16:03:48;;;;;;;5.83;5.20;;;;;;;;;;5067869;28;20266;-83
2021/06/03 16:06:14;;;;;;;5.97;4.90;;;;;;;;;;5078963;28;20617;-83
2021/06/03 16:08:40;;;;;;;7.17;6.03;;;;;;;;;;5087373;28;20635;-84
2021/06/03 16:11:06;;;;;;;4.83;4.43;;;;;;;;;;5092209;28;20680;-84
2021/06/03 16:13:32;;;;;;;5.40;4.90;;;;;;;;;;5074535;28;20213;-84
2021/06/03 16:15:58;;;;;;;5.83;5.27;;;;;;;;;;5091304;28;20179;-84
2021/06/03 16:18:24;;;;;;;7.07;5.32;;;;;;;;;;5090603;28;20473;-84
2021/06/03 16:20:53;;;;;;;4.97;4.30;;;;;;;;;;5092912;28;20697;-84
2021/06/03 16:23:20;;;;;;;5.30;4.77;;;;;;;;;;5087703;28;20181;-84
2021/06/03 16:25:46;;;;;;;5.30;4.53;;;;;;;;;;5074366;28;20188;-83
2021/06/03 16:28:12;;;;;;;5.93;4.87;;;;;;;;;;5061213;28;20184;-84
2021/06/03 16:30:39;;;;;;;5.27;4.77;;;;;;;;;;5094672;28;20220;-84
2021/06/03 16:33:05;;;;;;;6.20;4.67;;;;;;;;;;5084356;28;20629;-84
2021/06/03 16:35:31;;;;;;;4.90;4.40;;;;;;;;;;5086108;28;20190;-84
2021/06/03 16:37:59;;;;;;;6.43;5.00;;;;;;;;;;5068367;28;20181;-84
2021/06/03 16:40:26;;;;;;;4.80;4.40;;;;;;;;;;5065885;28;20218;-84
2021/06/03 16:42:52;;;;;;;4.83;4.37;;;;;;;;;;5069891;28;20185;-84
2021/06/03 16:45:18;;;;;;;5.50;5.00;;;;;;;;;;5083978;28;20180;-83
2021/06/03 16:47:44;;;;;;;5.53;5.00;;;;;;;;;;5085682;28;20177;-84
2021/06/03 16:50:11;;;;;;;6.50;5.03;;;;;;;;;;5070470;28;20256;-84
2021/06/03 16:52:37;;;;;;;5.40;4.90;;;;;;;;;;5069607;28;20576;-84
2021/06/03 16:55:07;;;;;;;5.47;4.97;;;;;;;;;;5075086;28;21075;-84
2021/06/03 16:57:33;;;;;;;6.77;5.00;;;;;;;;;;5072023;28;20181;-83
2021/06/03 16:59:59;;;;;;;5.93;5.33;;;;;;;;;;5073756;28;20203;-84
2021/06/03 17:02:25;;;;;;;5.37;4.87;;;;;;;;;;5066357;28;20183;-84
2021/06/03 17:04:51;;;;;;;5.53;5.03;;;;;;;;;;5066369;28;20188;-83
2021/06/03 17:07:17;;;;;;;4.83;4.43;;;;;;;;;;5069659;28;20184;-83
2021/06/03 17:09:43;;;;;;;5.00;4.57;;;;;;;;;;5074329;28;20196;-84
2021/06/03 17:12:09;;;;;;;5.43;4.93;;;;;;;;;;5093789;28;20301;-86
2021/06/03 17:14:35;;;;;;;5.50;5.00;;;;;;;;;;5077176;28;20212;-85
2021/06/03 17:17:01;;;;;;;5.90;4.80;;;;;;;;;;5070299;28;20181;-85
2021/06/03 17:19:30;;;;;;;12.40;5.67;;;;;;;;;;5068942;28;20179;-84